Time;durP1;ratioP1;P1;durP2;ratioP2;P2;SDS_P1;SDS_P2;PMS_P1;PMS_P2;Temp;Humidity;BMP_temperature;BMP_pressure;BME280_temperature;BME280_humidity;BME280_pressure;Samples;Min_cycle;Max_cycle;Signal;HPM_P1;HPM_P2
2021/04/29 04:15:50;;;;;;;0.75;0.70;;;1.70;94.20;;;;;;5051012;28;20049;-67
2021/04/29 04:18:16;;;;;;;0.70;0.70;;;2.00;92.80;;;;;;5051531;28;20028;-67
2021/04/29 04:20:43;;;;;;;1.15;0.80;;;2.40;91.20;;;;;;5051477;28;20482;-69
2021/04/29 04:23:09;;;;;;;4.18;0.75;;;2.70;88.10;;;;;;5051411;28;20021;-70
2021/04/29 04:25:35;;;;;;;2.58;0.70;;;3.00;85.00;;;;;;5051188;28;20032;-66
2021/04/29 04:28:01;;;;;;;1.05;0.85;;;3.30;82.80;;;;;;5051005;28;20040;-68
2021/04/29 04:30:27;;;;;;;2.05;0.80;;;3.50;81.10;;;;;;5051009;28;20029;-69
2021/04/29 04:32:53;;;;;;;1.15;0.60;;;3.60;79.40;;;;;;5052716;28;20031;-69
2021/04/29 04:35:19;;;;;;;0.63;0.60;;;3.60;78.70;;;;;;5054809;28;20079;-67
2021/04/29 04:37:45;;;;;;;0.60;0.60;;;3.70;79.80;;;;;;5054774;28;20029;-66
2021/04/29 04:40:12;;;;;;;0.98;0.70;;;3.80;82.70;;;;;;5054535;28;20025;-67
2021/04/29 04:42:38;;;;;;;3.72;0.77;;;4.80;79.00;;;;;;5054723;28;20032;-67
2021/04/29 04:45:09;;;;;;;0.90;0.52;;;4.90;74.30;;;;;;5054728;28;20028;-68
2021/04/29 04:47:35;;;;;;;0.68;0.68;;;5.00;72.90;;;;;;5054469;28;20431;-68
2021/04/29 04:50:01;;;;;;;0.80;0.60;;;5.10;72.10;;;;;;5054262;28;20029;-71
2021/04/29 04:52:27;;;;;;;1.30;0.65;;;5.30;70.70;;;;;;5054657;28;20056;-67
2021/04/29 04:54:53;;;;;;;0.57;0.50;;;5.40;69.80;;;;;;5054431;28;20440;-68
2021/04/29 04:57:20;;;;;;;3.83;0.50;;;5.50;69.00;;;;;;5054394;28;20028;-69
2021/04/29 04:59:46;;;;;;;2.35;0.65;;;5.70;68.40;;;;;;5054448;28;20017;-68
2021/04/29 05:02:12;;;;;;;2.72;0.85;;;5.80;67.80;;;;;;5054496;28;20151;-69
2021/04/29 05:04:38;;;;;;;0.65;0.60;;;5.90;66.70;;;;;;5054265;28;20492;-69
2021/04/29 05:07:04;;;;;;;1.13;0.50;;;6.10;66.20;;;;;;5054156;28;20063;-70
2021/04/29 05:09:31;;;;;;;3.13;0.60;;;6.30;65.70;;;;;;5054498;28;20032;-70
2021/04/29 05:11:57;;;;;;;2.10;0.70;;;6.50;64.90;;;;;;5054319;28;20056;-69
2021/04/29 05:14:24;;;;;;;0.50;0.50;;;6.70;64.10;;;;;;5053420;28;20045;-69
2021/04/29 05:16:50;;;;;;;0.63;0.50;;;7.00;63.20;;;;;;5054132;28;20037;-69
2021/04/29 05:19:16;;;;;;;0.63;0.50;;;7.20;62.50;;;;;;5054220;28;20025;-70
2021/04/29 05:21:41;;;;;;;1.02;0.70;;;7.40;61.70;;;;;;5054127;28;20017;-69
2021/04/29 05:24:08;;;;;;;1.15;0.52;;;7.70;61.00;;;;;;5053861;28;20483;-69
2021/04/29 05:26:34;;;;;;;5.05;0.68;;;7.90;59.80;;;;;;5053936;28;20105;-69
2021/04/29 05:29:00;;;;;;;7.97;0.70;;;8.10;59.50;;;;;;5053888;28;20124;-70
2021/04/29 05:31:26;;;;;;;3.42;0.73;;;8.30;59.30;;;;;;5053550;28;20043;-70
2021/04/29 05:33:52;;;;;;;3.00;0.50;;;8.30;58.20;;;;;;5053898;28;20021;-69
2021/04/29 05:36:18;;;;;;;3.17;0.80;;;8.40;58.20;;;;;;5053515;28;20025;-69
2021/04/29 05:38:43;;;;;;;7.88;0.82;;;8.40;57.80;;;;;;5053803;28;20024;-69
2021/04/29 05:41:09;;;;;;;6.05;0.70;;;8.60;58.00;;;;;;5053460;28;20043;-69
2021/04/29 05:43:35;;;;;;;1.65;0.63;;;8.80;57.40;;;;;;5053069;28;20025;-69
2021/04/29 05:46:01;;;;;;;6.07;0.50;;;8.90;56.70;;;;;;5053178;28;20021;-68
2021/04/29 05:48:27;;;;;;;3.22;0.85;;;9.20;56.80;;;;;;5053360;28;20128;-68
2021/04/29 05:50:52;;;;;;;1.52;0.60;;;9.50;55.90;;;;;;5053256;28;20029;-69
2021/04/29 05:53:18;;;;;;;0.52;0.40;;;9.80;55.30;;;;;;5053315;28;20036;-68
2021/04/29 05:55:44;;;;;;;0.80;0.38;;;9.90;54.20;;;;;;5053546;28;20028;-69
2021/04/29 05:58:09;;;;;;;0.70;0.50;;;10.10;53.60;;;;;;5053188;28;20048;-68
2021/04/29 06:00:36;;;;;;;0.85;0.73;;;10.20;52.90;;;;;;5053267;28;20140;-69
2021/04/29 06:03:02;;;;;;;0.75;0.40;;;10.60;53.30;;;;;;5053545;28;20143;-68
2021/04/29 06:05:28;;;;;;;0.30;0.30;;;10.70;51.50;;;;;;5052718;28;20043;-68
2021/04/29 06:07:57;;;;;;;0.38;0.38;;;10.60;50.90;;;;;;5053173;28;20415;-67
2021/04/29 06:10:24;;;;;;;0.37;0.33;;;10.70;51.10;;;;;;5052857;28;20032;-68
2021/04/29 06:12:50;;;;;;;0.40;0.35;;;10.80;50.50;;;;;;5053050;28;20769;-69
2021/04/29 06:15:16;;;;;;;0.40;0.30;;;10.80;50.30;;;;;;5052775;28;20045;-69
2021/04/29 06:17:42;;;;;;;0.90;0.60;;;10.80;50.00;;;;;;5052970;28;20033;-69
2021/04/29 06:20:08;;;;;;;0.52;0.30;;;10.90;50.10;;;;;;5052778;28;20124;-69
2021/04/29 06:22:35;;;;;;;0.52;0.50;;;10.70;49.40;;;;;;5052680;28;20059;-69
2021/04/29 06:25:00;;;;;;;0.40;0.40;;;10.60;49.80;;;;;;5052965;28;20017;-69
2021/04/29 06:27:26;;;;;;;0.43;0.43;;;10.40;50.20;;;;;;5052670;28;20118;-69
2021/04/29 06:29:52;;;;;;;0.30;0.30;;;10.40;50.40;;;;;;5052588;28;20048;-69
2021/04/29 06:32:17;;;;;;;15.13;1.27;;;10.40;50.20;;;;;;5052569;28;20078;-68
2021/04/29 06:34:45;;;;;;;0.85;0.38;;;11.20;57.10;;;;;;5052649;28;20033;-73
2021/04/29 06:37:11;;;;;;;0.40;0.40;;;11.30;49.50;;;;;;5052206;28;20032;-75
2021/04/29 06:39:36;;;;;;;0.60;0.40;;;11.10;49.00;;;;;;5052474;28;20017;-76
2021/04/29 06:42:02;;;;;;;0.40;0.40;;;10.90;49.40;;;;;;5052466;28;20032;-76
2021/04/29 06:44:29;;;;;;;0.30;0.30;;;10.80;49.80;;;;;;5052322;28;20392;-74
2021/04/29 06:46:55;;;;;;;4.40;0.50;;;10.80;49.10;;;;;;5052316;28;20021;-73
2021/04/29 06:49:20;;;;;;;0.63;0.38;;;10.70;48.80;;;;;;5052299;28;20032;-72
2021/04/29 06:51:46;;;;;;;0.30;0.30;;;10.50;49.70;;;;;;5052283;28;20021;-71
2021/04/29 06:54:12;;;;;;;50.20;4.20;;;10.60;49.80;;;;;;5051996;28;20032;-71
2021/04/29 06:56:37;;;;;;;0.95;0.50;;;10.70;49.30;;;;;;5052015;28;20039;-69
2021/04/29 06:59:05;;;;;;;0.30;0.30;;;10.60;49.20;;;;;;5052055;28;20033;-67
2021/04/29 07:01:30;;;;;;;2.15;0.32;;;10.20;48.70;;;;;;5051853;28;20483;-70
2021/04/29 07:03:57;;;;;;;17.38;1.65;;;10.00;49.40;;;;;;5052134;28;20080;-70
2021/04/29 07:06:23;;;;;;;0.40;0.40;;;10.00;52.60;;;;;;5051654;28;20032;-76
2021/04/29 07:08:50;;;;;;;0.30;0.30;;;10.20;50.60;;;;;;5052277;28;20488;-77
2021/04/29 07:11:16;;;;;;;0.35;0.30;;;10.00;50.00;;;;;;5052171;28;20052;-78
2021/04/29 07:13:42;;;;;;;0.30;0.30;;;10.00;49.30;;;;;;5051954;28;20430;-75
2021/04/29 07:16:08;;;;;;;0.47;0.25;;;10.00;49.40;;;;;;5051761;28;20083;-72
2021/04/29 07:18:34;;;;;;;3.88;0.40;;;10.00;49.60;;;;;;5052195;28;20032;-69
2021/04/29 07:20:59;;;;;;;0.77;0.50;;;10.00;49.70;;;;;;5051845;28;20531;-69
2021/04/29 07:23:25;;;;;;;1.48;0.60;;;9.90;49.20;;;;;;5051813;28;20029;-69
2021/04/29 07:25:51;;;;;;;1.55;0.40;;;9.60;49.60;;;;;;5052083;28;20029;-72
2021/04/29 07:28:18;;;;;;;0.47;0.40;;;9.60;49.80;;;;;;5052193;28;20029;-71
2021/04/29 07:30:44;;;;;;;0.30;0.30;;;9.60;49.60;;;;;;5051812;28;20036;-71
2021/04/29 07:33:11;;;;;;;1.00;0.47;;;9.40;49.70;;;;;;5051908;28;20048;-71
2021/04/29 07:35:38;;;;;;;1.33;0.40;;;9.40;50.20;;;;;;5051922;28;20036;-74
2021/04/29 07:38:04;;;;;;;0.30;0.30;;;9.40;50.20;;;;;;5051812;28;20175;-70
2021/04/29 07:40:32;;;;;;;1.00;0.30;;;9.30;49.60;;;;;;5050676;28;20184;-69
2021/04/29 07:42:58;;;;;;;0.98;0.50;;;9.10;51.00;;;;;;5050688;28;20025;-71
2021/04/29 07:45:24;;;;;;;1.30;0.30;;;9.70;54.10;;;;;;5050879;28;20469;-72
2021/04/29 07:47:50;;;;;;;0.45;0.40;;;9.50;51.20;;;;;;5051141;28;20056;-71
2021/04/29 07:50:16;;;;;;;0.73;0.50;;;9.30;51.20;;;;;;5051157;28;20029;-71
2021/04/29 07:52:42;;;;;;;0.60;0.40;;;9.20;50.60;;;;;;5051163;28;20013;-70
2021/04/29 07:55:10;;;;;;;3.65;0.70;;;9.20;50.90;;;;;;5051131;28;20029;-70
2021/04/29 07:57:36;;;;;;;0.45;0.40;;;9.00;50.80;;;;;;5048375;28;20382;-69
2021/04/29 08:00:06;;;;;;;3.05;0.60;;;9.00;50.70;;;;;;5051605;28;20028;-69
2021/04/29 08:02:33;;;;;;;1.70;0.40;;;8.90;51.00;;;;;;5051647;28;20013;-70
2021/04/29 08:04:58;;;;;;;0.40;0.40;;;8.70;50.70;;;;;;5051504;28;20396;-70
2021/04/29 08:07:24;;;;;;;0.30;0.30;;;8.70;50.70;;;;;;5052596;28;20021;-70
2021/04/29 08:09:50;;;;;;;1.05;0.45;;;8.60;50.60;;;;;;5055576;28;20043;-70
2021/04/29 08:12:16;;;;;;;1.08;0.40;;;8.70;51.20;;;;;;5055475;28;20449;-70
2021/04/29 08:14:42;;;;;;;0.40;0.40;;;8.80;51.30;;;;;;5055272;28;20076;-69
2021/04/29 08:17:08;;;;;;;0.35;0.30;;;8.80;50.80;;;;;;5055181;28;20064;-70
2021/04/29 08:19:34;;;;;;;0.22;0.22;;;8.80;51.30;;;;;;5054965;28;20091;-69
2021/04/29 08:21:59;;;;;;;0.40;0.40;;;8.90;51.10;;;;;;5054862;28;20023;-70
2021/04/29 08:24:25;;;;;;;1.02;0.40;;;9.00;50.70;;;;;;5054792;28;20111;-69
2021/04/29 08:26:51;;;;;;;0.60;0.30;;;8.90;51.70;;;;;;5054931;28;20021;-69
2021/04/29 08:29:17;;;;;;;0.40;0.40;;;8.80;50.90;;;;;;5054776;28;20037;-69
2021/04/29 08:31:42;;;;;;;0.38;0.30;;;8.70;50.60;;;;;;5055139;28;20018;-69
2021/04/29 08:34:08;;;;;;;0.47;0.40;;;8.60;50.60;;;;;;5054974;28;20056;-71
2021/04/29 08:36:34;;;;;;;1.85;0.40;;;8.60;50.50;;;;;;5054774;28;20469;-69
2021/04/29 08:39:03;;;;;;;7.85;0.68;;;8.60;54.40;;;;;;5036181;28;20093;-69
2021/04/29 08:41:29;;;;;;;0.60;0.50;;;8.80;51.90;;;;;;5034739;28;20440;-69
2021/04/29 08:43:55;;;;;;;1.23;0.77;;;8.70;49.70;;;;;;5034813;28;20071;-69
2021/04/29 08:46:21;;;;;;;3.28;0.70;;;8.60;51.20;;;;;;5035189;28;20433;-67
2021/04/29 08:48:54;;;;;;;0.65;0.45;;;8.60;50.80;;;;;;5034641;28;20037;-67
2021/04/29 08:51:21;;;;;;;2.40;0.40;;;8.40;50.10;;;;;;5042395;28;20086;-68
2021/04/29 08:53:48;;;;;;;12.63;1.98;;;8.70;53.50;;;;;;5053841;28;20029;-68
2021/04/29 08:56:20;;;;;;;2.05;0.60;;;8.70;51.60;;;;;;5054322;28;20040;-68
2021/04/29 08:58:46;;;;;;;0.40;0.40;;;8.60;52.10;;;;;;5054522;28;20075;-67
2021/04/29 09:01:12;;;;;;;0.50;0.40;;;8.60;52.80;;;;;;5053881;28;20112;-68
2021/04/29 09:03:39;;;;;;;1.38;0.60;;;8.70;52.30;;;;;;5052827;28;20024;-68
2021/04/29 09:06:05;;;;;;;0.45;0.43;;;8.70;50.90;;;;;;5053698;28;20182;-68
2021/04/29 09:08:33;;;;;;;0.65;0.50;;;8.70;50.70;;;;;;5053613;28;20498;-67
2021/04/29 09:11:15;;;;;;;0.57;0.30;;;8.60;51.20;;;;;;5053700;28;20488;-68
2021/04/29 09:13:56;;;;;;;0.40;0.40;;;8.70;51.70;;;;;;5054281;28;20017;-67
2021/04/29 09:16:22;;;;;;;2.55;0.45;;;8.70;51.50;;;;;;5053695;28;20179;-67
2021/04/29 09:18:49;;;;;;;2.35;0.50;;;8.80;51.60;;;;;;5052808;28;20111;-67
2021/04/29 09:21:16;;;;;;;0.30;0.30;;;8.90;51.60;;;;;;5054211;28;20072;-67
2021/04/29 09:23:48;;;;;;;0.40;0.40;;;8.90;51.80;;;;;;5054363;28;20029;-67
2021/04/29 09:26:16;;;;;;;0.80;0.57;;;8.90;51.30;;;;;;5054300;28;20029;-67
2021/04/29 09:28:47;;;;;;;0.38;0.30;;;8.90;50.50;;;;;;5053796;28;20029;-66
2021/04/29 09:31:17;;;;;;;1.98;0.50;;;8.70;50.40;;;;;;5053698;28;20052;-68
2021/04/29 09:33:59;;;;;;;0.40;0.40;;;8.50;51.20;;;;;;5054171;28;20524;-70
2021/04/29 09:36:27;;;;;;;0.40;0.38;;;8.40;51.00;;;;;;5053271;28;20655;-69
2021/04/29 09:38:59;;;;;;;1.75;0.40;;;8.30;50.90;;;;;;5053680;28;20484;-69
2021/04/29 09:41:26;;;;;;;1.95;1.00;;;8.20;51.20;;;;;;5053441;28;20025;-69
2021/04/29 09:43:53;;;;;;;0.80;0.40;;;8.20;51.80;;;;;;5050286;28;20028;-69
2021/04/29 09:46:19;;;;;;;4.13;0.60;;;8.10;52.70;;;;;;5052238;28;20025;-68
2021/04/29 09:48:45;;;;;;;1.67;0.40;;;8.00;52.80;;;;;;5052965;28;20178;-68
2021/04/29 09:51:13;;;;;;;26.33;1.48;;;8.00;53.60;;;;;;5053283;28;20130;-68
2021/04/29 09:53:50;;;;;;;0.63;0.40;;;8.10;53.30;;;;;;5052789;28;20029;-68
2021/04/29 09:56:18;;;;;;;3.03;0.52;;;8.10;53.20;;;;;;5051977;28;20065;-69
2021/04/29 09:58:55;;;;;;;2.53;0.30;;;8.10;57.50;;;;;;5053027;28;20025;-68
2021/04/29 10:01:27;;;;;;;0.40;0.40;;;9.00;62.10;;;;;;5050024;28;20504;-68
2021/04/29 10:03:55;;;;;;;0.38;0.30;;;9.10;52.20;;;;;;5052210;28;20025;-69
2021/04/29 10:06:22;;;;;;;0.40;0.40;;;8.80;51.20;;;;;;5051118;28;20028;-69
2021/04/29 10:08:50;;;;;;;2.28;0.50;;;8.70;50.60;;;;;;5052802;28;20423;-69
2021/04/29 10:11:19;;;;;;;5.80;0.57;;;8.60;50.30;;;;;;5052996;28;20200;-69
2021/04/29 10:13:46;;;;;;;1.75;0.40;;;8.50;50.90;;;;;;5052995;28;20027;-68
2021/04/29 10:16:12;;;;;;;0.75;0.40;;;8.50;51.80;;;;;;5052727;28;20037;-68
2021/04/29 10:18:38;;;;;;;0.30;0.30;;;8.50;52.30;;;;;;5052871;28;20033;-68
2021/04/29 10:21:06;;;;;;;7.78;1.00;;;8.50;51.50;;;;;;5052735;28;20029;-69
2021/04/29 10:23:32;;;;;;;1.30;0.30;;;8.50;51.10;;;;;;5052681;28;20071;-69
2021/04/29 10:26:00;;;;;;;1.10;0.40;;;8.50;51.10;;;;;;5052713;28;20021;-69
2021/04/29 10:28:33;;;;;;;0.30;0.30;;;8.50;51.40;;;;;;5052783;28;20080;-69
2021/04/29 10:31:02;;;;;;;0.60;0.50;;;8.30;50.90;;;;;;5052269;28;20091;-69
2021/04/29 10:33:35;;;;;;;5.18;0.65;;;8.20;50.80;;;;;;5052530;28;20021;-69
2021/04/29 10:36:01;;;;;;;0.50;0.50;;;8.10;51.20;;;;;;5052784;28;20411;-69
2021/04/29 10:38:32;;;;;;;4.18;0.63;;;8.00;51.80;;;;;;5052807;28;20112;-69
2021/04/29 10:41:01;;;;;;;23.80;2.30;;;7.90;52.50;;;;;;5052441;28;20036;-69
2021/04/29 10:43:35;;;;;;;13.20;1.05;;;7.80;54.40;;;;;;5052716;28;20472;-69
2021/04/29 10:46:04;;;;;;;1.27;0.80;;;7.90;56.00;;;;;;5052587;28;20029;-71
2021/04/29 10:48:32;;;;;;;4.35;0.80;;;8.00;55.90;;;;;;5049300;28;20395;-71
2021/04/29 10:51:10;;;;;;;0.90;0.50;;;7.90;55.30;;;;;;5050219;28;20029;-69
2021/04/29 10:53:38;;;;;;;2.13;0.75;;;7.90;55.30;;;;;;5051382;28;20032;-70
2021/04/29 10:56:06;;;;;;;4.35;0.70;;;7.80;54.70;;;;;;5050237;28;20036;-73
2021/04/29 10:58:32;;;;;;;5.80;0.95;;;7.80;54.40;;;;;;5052383;28;20101;-74
2021/04/29 11:01:13;;;;;;;4.43;0.60;;;7.80;54.10;;;;;;5052038;28;20032;-73
2021/04/29 11:03:40;;;;;;;1.33;0.50;;;7.80;53.70;;;;;;5052029;28;20033;-74
2021/04/29 11:06:09;;;;;;;3.13;0.40;;;7.80;53.90;;;;;;5052011;28;20070;-73
2021/04/29 11:08:37;;;;;;;0.63;0.50;;;7.80;55.00;;;;;;5052120;28;20029;-73
2021/04/29 11:11:03;;;;;;;2.03;0.50;;;7.80;55.80;;;;;;5051887;28;20021;-73
2021/04/29 11:13:29;;;;;;;2.42;0.40;;;7.80;55.70;;;;;;5052129;28;20029;-73
2021/04/29 11:16:00;;;;;;;1.63;0.52;;;7.80;55.50;;;;;;5051735;28;20041;-73
2021/04/29 11:18:26;;;;;;;3.33;0.50;;;7.80;55.00;;;;;;5051857;28;20017;-73
2021/04/29 11:20:57;;;;;;;6.72;0.63;;;7.80;55.00;;;;;;5052114;28;20025;-74
2021/04/29 11:23:41;;;;;;;3.22;1.05;;;7.90;55.30;;;;;;5051743;28;20028;-74
2021/04/29 11:26:15;;;;;;;3.92;0.85;;;8.00;54.70;;;;;;5052110;28;20142;-74
2021/04/29 11:28:40;;;;;;;20.20;1.55;;;8.20;54.90;;;;;;5051514;28;20025;-74
2021/04/29 11:31:06;;;;;;;3.33;0.77;;;8.30;53.80;;;;;;5052025;28;20044;-74
2021/04/29 11:33:40;;;;;;;1.55;0.57;;;8.40;53.00;;;;;;5051894;28;20052;-74
2021/04/29 11:36:18;;;;;;;4.32;0.60;;;8.40;52.40;;;;;;5051666;28;20029;-74
2021/04/29 11:38:49;;;;;;;7.10;1.02;;;8.50;52.30;;;;;;5051657;28;20021;-74
2021/04/29 11:41:15;;;;;;;9.88;0.60;;;8.50;52.50;;;;;;5051774;28;20384;-74
2021/04/29 11:43:41;;;;;;;9.60;1.13;;;8.50;52.40;;;;;;5054700;28;20039;-74
2021/04/29 11:46:18;;;;;;;5.03;0.70;;;8.50;52.00;;;;;;5056059;28;20025;-74
2021/04/29 11:48:53;;;;;;;4.82;0.65;;;8.40;51.90;;;;;;5055609;28;20033;-75
2021/04/29 11:51:19;;;;;;;7.15;1.98;;;8.40;51.50;;;;;;5055543;28;20070;-74
2021/04/29 11:53:45;;;;;;;4.75;0.85;;;8.30;52.60;;;;;;5055753;28;20031;-74
2021/04/29 11:56:13;;;;;;;14.40;0.90;;;8.20;52.30;;;;;;5055463;28;20512;-74
2021/04/29 11:58:39;;;;;;;4.45;0.75;;;8.20;52.60;;;;;;5055667;28;20043;-74
2021/04/29 12:01:15;;;;;;;5.35;0.73;;;8.20;52.00;;;;;;5055555;28;20380;-74
2021/04/29 12:03:42;;;;;;;3.58;0.75;;;8.30;51.70;;;;;;5055647;28;20440;-74
2021/04/29 12:06:08;;;;;;;6.60;0.93;;;8.40;51.60;;;;;;5055235;28;20083;-72
2021/04/29 12:08:37;;;;;;;6.18;0.55;;;8.50;51.30;;;;;;5055106;28;20033;-74
2021/04/29 12:11:11;;;;;;;1.55;0.50;;;8.60;55.10;;;;;;5055149;28;20025;-73
2021/04/29 12:13:38;;;;;;;1.20;0.55;;;8.70;49.20;;;;;;5054886;28;20588;-70
2021/04/29 12:16:07;;;;;;;8.13;0.60;;;8.70;48.10;;;;;;5055180;28;20451;-70
2021/04/29 12:18:33;;;;;;;0.63;0.40;;;8.90;53.40;;;;;;5055226;28;20021;-70
2021/04/29 12:21:00;;;;;;;0.80;0.38;;;8.90;47.60;;;;;;5055616;28;20103;-70
2021/04/29 12:23:26;;;;;;;4.75;0.50;;;8.80;46.40;;;;;;5054911;28;20108;-70
2021/04/29 12:25:57;;;;;;;1.90;0.40;;;8.70;46.50;;;;;;5055029;28;20582;-70
2021/04/29 12:28:32;;;;;;;3.53;0.50;;;8.70;46.50;;;;;;5054910;28;20033;-70
2021/04/29 12:31:09;;;;;;;2.80;0.40;;;8.70;47.20;;;;;;5055300;28;20056;-70
2021/04/29 12:33:35;;;;;;;0.30;0.30;;;8.70;46.40;;;;;;5053723;28;20017;-70
2021/04/29 12:36:11;;;;;;;0.90;0.40;;;8.70;45.00;;;;;;5054113;28;20082;-70
2021/04/29 12:38:36;;;;;;;9.85;0.70;;;8.70;44.10;;;;;;5054740;28;20059;-70
2021/04/29 12:41:08;;;;;;;4.50;1.05;;;8.60;43.80;;;;;;5054874;28;20082;-70
2021/04/29 12:43:35;;;;;;;3.50;0.70;;;8.60;44.60;;;;;;5054937;28;20035;-70
2021/04/29 12:46:03;;;;;;;0.30;0.30;;;8.70;44.70;;;;;;5054644;28;20059;-70
2021/04/29 12:48:39;;;;;;;1.33;0.57;;;8.70;44.50;;;;;;5054381;28;20033;-69
2021/04/29 12:51:14;;;;;;;0.55;0.40;;;8.80;47.00;;;;;;5054754;28;20029;-66
2021/04/29 12:53:53;;;;;;;0.47;0.35;;;8.90;45.10;;;;;;5054073;28;20056;-68
2021/04/29 12:56:25;;;;;;;1.43;0.50;;;9.00;45.20;;;;;;5054501;28;20029;-68
2021/04/29 12:58:50;;;;;;;0.47;0.47;;;9.00;44.20;;;;;;5052290;28;20317;-67
2021/04/29 13:01:22;;;;;;;1.13;0.50;;;9.10;44.20;;;;;;5052689;28;20111;-67
2021/04/29 13:03:48;;;;;;;1.10;0.40;;;9.10;44.10;;;;;;5054679;28;20040;-67
2021/04/29 13:06:14;;;;;;;1.13;0.30;;;9.20;44.10;;;;;;5055013;28;20060;-66
2021/04/29 13:08:59;;;;;;;6.88;0.52;;;9.20;44.40;;;;;;5053512;28;20075;-68
2021/04/29 13:11:34;;;;;;;0.55;0.38;;;9.20;44.20;;;;;;5053206;28;20520;-67
2021/04/29 13:14:04;;;;;;;3.50;0.40;;;9.10;44.20;;;;;;5054168;28;20120;-68
2021/04/29 13:16:31;;;;;;;3.97;0.60;;;9.00;44.90;;;;;;5053845;28;20048;-68
2021/04/29 13:18:58;;;;;;;4.60;0.60;;;9.00;45.20;;;;;;5054145;28;20032;-68
2021/04/29 13:21:24;;;;;;;0.80;0.50;;;9.10;45.60;;;;;;5053960;28;20017;-68
2021/04/29 13:23:50;;;;;;;6.03;0.50;;;9.20;45.50;;;;;;5053727;28;20037;-68
2021/04/29 13:26:16;;;;;;;0.20;0.20;;;9.20;45.00;;;;;;5053740;28;20033;-68
2021/04/29 13:28:42;;;;;;;3.75;0.40;;;9.20;44.90;;;;;;5053333;28;20124;-68
2021/04/29 13:31:08;;;;;;;1.85;0.50;;;9.20;45.00;;;;;;5053524;28;20392;-68
2021/04/29 13:33:34;;;;;;;0.45;0.40;;;9.30;45.10;;;;;;5053165;28;20031;-68
2021/04/29 13:36:00;;;;;;;4.63;0.40;;;9.30;44.90;;;;;;5055907;28;20021;-70
2021/04/29 13:38:25;;;;;;;5.57;0.73;;;9.30;44.50;;;;;;5053632;28;20481;-70
2021/04/29 13:40:51;;;;;;;3.50;0.30;;;9.20;44.50;;;;;;5053187;28;20021;-69
2021/04/29 13:43:17;;;;;;;0.52;0.40;;;9.20;44.40;;;;;;5053297;28;20315;-72
2021/04/29 13:45:45;;;;;;;0.30;0.22;;;9.20;44.50;;;;;;5052955;28;20476;-71
2021/04/29 13:48:11;;;;;;;1.17;1.08;;;9.10;44.60;;;;;;5060894;28;20412;-71
2021/04/29 13:50:37;;;;;;;2.60;0.40;;;9.10;44.10;;;;;;5057947;28;20029;-71
2021/04/29 13:53:03;;;;;;;1.35;0.30;;;9.10;44.40;;;;;;5054697;28;20103;-71
2021/04/29 13:55:29;;;;;;;0.65;0.30;;;9.10;44.50;;;;;;5052545;28;20116;-70
2021/04/29 13:57:55;;;;;;;4.75;0.50;;;9.10;44.30;;;;;;5052805;28;20058;-70
2021/04/29 14:00:21;;;;;;;0.75;0.30;;;9.10;44.20;;;;;;5052785;28;20029;-71
2021/04/29 14:02:47;;;;;;;0.85;0.40;;;9.00;44.60;;;;;;5052308;28;20481;-70
2021/04/29 14:05:13;;;;;;;1.38;0.50;;;9.00;44.20;;;;;;5050897;28;20067;-71
2021/04/29 14:07:39;;;;;;;0.35;0.22;;;8.90;44.40;;;;;;5052274;28;20017;-71
2021/04/29 14:10:06;;;;;;;5.95;0.55;;;8.90;44.30;;;;;;5053162;28;20507;-71
2021/04/29 14:12:31;;;;;;;0.95;0.52;;;8.80;44.40;;;;;;5052781;28;20059;-71
2021/04/29 14:14:57;;;;;;;2.80;0.40;;;8.90;44.90;;;;;;5052829;28;20037;-71
2021/04/29 14:17:23;;;;;;;0.47;0.30;;;8.90;44.70;;;;;;5052799;28;20063;-71
2021/04/29 14:19:49;;;;;;;0.82;0.40;;;8.90;44.90;;;;;;5052583;28;20025;-71
2021/04/29 14:22:15;;;;;;;6.10;0.60;;;8.90;45.20;;;;;;5051910;28;20032;-70
2021/04/29 14:24:41;;;;;;;1.25;0.40;;;8.90;44.70;;;;;;5052055;28;20025;-70
2021/04/29 14:27:08;;;;;;;3.40;0.40;;;8.90;45.00;;;;;;5051705;28;20017;-69
2021/04/29 14:29:34;;;;;;;4.30;0.45;;;8.90;47.50;;;;;;5052062;28;20044;-68
2021/04/29 14:32:00;;;;;;;3.47;0.45;;;8.90;45.30;;;;;;5052732;28;20102;-69
2021/04/29 14:34:26;;;;;;;1.15;0.40;;;8.80;45.20;;;;;;5052480;28;20048;-69
2021/04/29 14:36:51;;;;;;;4.40;0.50;;;8.70;45.10;;;;;;5052119;28;20032;-69
2021/04/29 14:39:18;;;;;;;0.63;0.40;;;8.90;54.90;;;;;;5052080;28;20510;-69
2021/04/29 14:41:44;;;;;;;3.70;0.50;;;9.20;46.50;;;;;;5052288;28;20021;-69
2021/04/29 14:44:12;;;;;;;1.05;0.60;;;9.10;45.30;;;;;;5052498;28;20075;-69
2021/04/29 14:46:39;;;;;;;1.25;0.60;;;9.00;45.10;;;;;;5052255;28;20029;-69
2021/04/29 14:49:06;;;;;;;0.60;0.50;;;8.80;44.90;;;;;;5052165;28;20033;-69
2021/04/29 14:51:32;;;;;;;0.40;0.40;;;8.80;45.00;;;;;;5052559;28;20029;-69
2021/04/29 14:53:57;;;;;;;2.10;0.50;;;8.70;44.40;;;;;;5052550;28;20021;-69
2021/04/29 14:56:23;;;;;;;2.38;0.50;;;8.60;44.70;;;;;;5052140;28;20422;-69
2021/04/29 14:58:49;;;;;;;2.03;0.50;;;8.60;44.90;;;;;;5052157;28;20033;-69
2021/04/29 15:01:14;;;;;;;0.30;0.30;;;8.50;44.60;;;;;;5052505;28;20017;-69
2021/04/29 15:03:40;;;;;;;0.50;0.50;;;8.50;45.20;;;;;;5052094;28;20098;-69
2021/04/29 15:06:06;;;;;;;0.63;0.47;;;8.50;45.10;;;;;;5052387;28;20021;-69
2021/04/29 15:08:31;;;;;;;0.40;0.40;;;8.50;45.00;;;;;;5052048;28;20550;-68
2021/04/29 15:10:57;;;;;;;0.38;0.30;;;8.50;45.00;;;;;;5052111;28;20086;-68
2021/04/29 15:13:23;;;;;;;3.25;0.55;;;8.50;45.00;;;;;;5052248;28;20074;-69
2021/04/29 15:15:49;;;;;;;0.40;0.40;;;8.40;45.20;;;;;;5051853;28;20512;-69
2021/04/29 15:18:15;;;;;;;1.50;0.50;;;8.40;45.30;;;;;;5051947;28;20028;-68
2021/04/29 15:20:41;;;;;;;1.23;0.40;;;8.30;44.90;;;;;;5051995;28;20025;-68
2021/04/29 15:23:06;;;;;;;1.58;0.65;;;8.30;45.00;;;;;;5051971;28;20539;-68
2021/04/29 15:25:32;;;;;;;0.50;0.30;;;8.20;45.10;;;;;;5052198;28;20033;-69
2021/04/29 15:27:58;;;;;;;3.50;0.80;;;8.20;45.20;;;;;;5051655;28;20039;-69
2021/04/29 15:30:24;;;;;;;4.75;0.55;;;8.20;45.50;;;;;;5052181;28;20033;-68
2021/04/29 15:32:50;;;;;;;0.82;0.40;;;8.20;45.70;;;;;;5051664;28;20435;-69
2021/04/29 15:35:16;;;;;;;1.75;0.50;;;8.30;45.50;;;;;;5051996;28;20032;-69
2021/04/29 15:37:42;;;;;;;2.75;0.50;;;8.30;45.30;;;;;;5051905;28;20457;-68
2021/04/29 15:40:11;;;;;;;1.88;0.82;;;8.20;45.30;;;;;;5051779;28;20029;-68
2021/04/29 15:42:37;;;;;;;0.35;0.35;;;8.10;44.60;;;;;;5051001;28;20053;-68
2021/04/29 15:45:04;;;;;;;1.27;0.43;;;8.10;45.60;;;;;;5051073;28;20551;-68
2021/04/29 15:47:30;;;;;;;2.25;0.50;;;8.10;45.60;;;;;;5051335;28;20033;-69
2021/04/29 15:49:55;;;;;;;0.47;0.45;;;8.20;46.10;;;;;;5051023;28;20040;-69
2021/04/29 15:52:21;;;;;;;3.80;0.65;;;8.20;45.80;;;;;;5051599;28;20021;-68
2021/04/29 15:54:47;;;;;;;1.55;0.40;;;8.20;45.60;;;;;;5051475;28;20388;-69
2021/04/29 15:57:12;;;;;;;1.25;0.50;;;8.30;46.00;;;;;;5051538;28;20025;-69
2021/04/29 15:59:38;;;;;;;0.40;0.40;;;8.30;45.60;;;;;;5051351;28;20069;-67
2021/04/29 16:02:04;;;;;;;2.17;0.57;;;8.20;45.00;;;;;;5051527;28;20032;-71
2021/04/29 16:04:30;;;;;;;8.05;1.75;;;8.30;45.50;;;;;;5051798;28;20032;-68
2021/04/29 16:06:55;;;;;;;3.92;0.50;;;8.80;55.60;;;;;;5051071;28;20032;-69
2021/04/29 16:09:21;;;;;;;4.50;0.43;;;9.10;48.10;;;;;;5051298;28;20472;-70
2021/04/29 16:11:47;;;;;;;6.68;0.50;;;8.80;44.90;;;;;;5051470;28;20115;-69
2021/04/29 16:14:13;;;;;;;3.80;0.60;;;8.50;45.40;;;;;;5051361;28;20378;-69
2021/04/29 16:16:39;;;;;;;3.00;0.50;;;8.30;45.60;;;;;;5051051;28;20045;-69
2021/04/29 16:19:05;;;;;;;0.30;0.30;;;8.20;45.80;;;;;;5051455;28;20021;-69
2021/04/29 16:21:31;;;;;;;1.02;0.52;;;8.20;46.00;;;;;;5051313;28;20021;-69
2021/04/29 16:23:57;;;;;;;4.90;0.60;;;8.10;46.00;;;;;;5051154;28;20044;-69
2021/04/29 16:26:23;;;;;;;2.20;0.90;;;8.10;46.40;;;;;;5050066;28;20021;-69
2021/04/29 16:28:49;;;;;;;0.68;0.40;;;8.10;46.40;;;;;;5052700;28;20546;-69
2021/04/29 16:31:15;;;;;;;3.17;0.40;;;8.00;46.30;;;;;;5055241;28;20033;-69
2021/04/29 16:33:40;;;;;;;2.60;0.40;;;8.00;46.50;;;;;;5054962;28;20056;-70
2021/04/29 16:36:06;;;;;;;0.98;0.50;;;8.00;46.90;;;;;;5055128;28;20495;-70
2021/04/29 16:38:32;;;;;;;3.40;0.60;;;8.00;46.80;;;;;;5055020;28;20017;-70
2021/04/29 16:41:00;;;;;;;4.38;0.50;;;8.00;46.90;;;;;;5054802;28;20053;-70
2021/04/29 16:43:26;;;;;;;6.75;0.50;;;8.10;48.70;;;;;;5052385;28;20021;-69
2021/04/29 16:45:52;;;;;;;0.40;0.40;;;8.20;47.10;;;;;;5054454;28;20025;-69
2021/04/29 16:48:18;;;;;;;1.27;0.40;;;8.10;46.50;;;;;;5054133;28;20040;-69
2021/04/29 16:50:43;;;;;;;0.52;0.40;;;8.00;46.70;;;;;;5054524;28;20036;-70
2021/04/29 16:53:09;;;;;;;1.02;0.55;;;7.90;47.10;;;;;;5054025;28;20527;-71
2021/04/29 16:55:35;;;;;;;3.30;0.98;;;7.90;47.40;;;;;;5054310;28;20576;-68
2021/04/29 16:58:04;;;;;;;0.60;0.40;;;7.80;47.30;;;;;;5053810;28;20040;-68
2021/04/29 17:00:30;;;;;;;2.75;0.50;;;7.70;47.50;;;;;;5054203;28;20477;-68
2021/04/29 17:02:56;;;;;;;3.60;0.43;;;7.70;47.80;;;;;;5054222;28;20078;-68
2021/04/29 17:05:22;;;;;;;0.50;0.50;;;7.60;48.00;;;;;;5054299;28;20489;-68
2021/04/29 17:07:48;;;;;;;0.50;0.50;;;7.60;48.20;;;;;;5053720;28;20036;-69
2021/04/29 17:10:19;;;;;;;0.85;0.65;;;7.60;48.30;;;;;;5053942;28;20040;-68